sensor_id;sensor_type;location;lat;lon;timestamp;pressure;altitude;pressure_sealevel;temperature;humidity
78584;BME280;67880;46.082;18.234;2023-04-03T00:00:17;99435.59;;;5.18;64.41
78584;BME280;67880;46.082;18.234;2023-04-03T00:00:47;99439.22;;;5.16;64.58
78584;BME280;67880;46.082;18.234;2023-04-03T00:01:20;99447.31;;;5.15;64.42
78584;BME280;67880;46.082;18.234;2023-04-03T00:01:51;99440.06;;;5.17;64.26
78584;BME280;67880;46.082;18.234;2023-04-03T00:02:21;99456.88;;;5.18;64.35
78584;BME280;67880;46.082;18.234;2023-04-03T00:02:52;99457.84;;;5.16;64.54
78584;BME280;67880;46.082;18.234;2023-04-03T00:03:23;99447.06;;;5.18;64.48
78584;BME280;67880;46.082;18.234;2023-04-03T00:03:54;99443.72;;;5.16;64.33
78584;BME280;67880;46.082;18.234;2023-04-03T00:04:25;99456.72;;;5.19;64.35
78584;BME280;67880;46.082;18.234;2023-04-03T00:04:56;99455.28;;;5.15;64.09
78584;BME280;67880;46.082;18.234;2023-04-03T00:05:27;99461.59;;;5.14;63.99
78584;BME280;67880;46.082;18.234;2023-04-03T00:05:57;99430.25;;;5.18;64.17
78584;BME280;67880;46.082;18.234;2023-04-03T00:06:28;99459.78;;;5.14;64.23
78584;BME280;67880;46.082;18.234;2023-04-03T00:06:59;99445.63;;;5.14;64.61
78584;BME280;67880;46.082;18.234;2023-04-03T00:07:29;99464.16;;;5.15;64.62
78584;BME280;67880;46.082;18.234;2023-04-03T00:08:00;99480.13;;;5.15;64.53
78584;BME280;67880;46.082;18.234;2023-04-03T00:08:32;99470.31;;;5.16;64.53
78584;BME280;67880;46.082;18.234;2023-04-03T00:09:03;99463.28;;;5.15;64.10
78584;BME280;67880;46.082;18.234;2023-04-03T00:09:33;99458.84;;;5.15;64.23
78584;BME280;67880;46.082;18.234;2023-04-03T00:10:04;99467.66;;;5.16;64.02
78584;BME280;67880;46.082;18.234;2023-04-03T00:10:36;99427.59;;;5.18;64.07
78584;BME280;67880;46.082;18.234;2023-04-03T00:11:08;99481.91;;;5.15;64.52
78584;BME280;67880;46.082;18.234;2023-04-03T00:11:39;99466.06;;;5.13;64.30
78584;BME280;67880;46.082;18.234;2023-04-03T00:12:10;99460.75;;;5.13;64.11
78584;BME280;67880;46.082;18.234;2023-04-03T00:12:41;99463.41;;;5.13;64.29
78584;BME280;67880;46.082;18.234;2023-04-03T00:13:12;99470.56;;;5.13;63.88
78584;BME280;67880;46.082;18.234;2023-04-03T00:13:43;99452.78;;;5.13;64.26
78584;BME280;67880;46.082;18.234;2023-04-03T00:14:13;99468.75;;;5.13;63.80
78584;BME280;67880;46.082;18.234;2023-04-03T00:14:44;99468.88;;;5.12;63.95
78584;BME280;67880;46.082;18.234;2023-04-03T00:15:15;99470.84;;;5.10;64.01
78584;BME280;67880;46.082;18.234;2023-04-03T00:15:45;99491.84;;;5.13;64.59
78584;BME280;67880;46.082;18.234;2023-04-03T00:16:16;99462.72;;;5.11;64.19
78584;BME280;67880;46.082;18.234;2023-04-03T00:16:47;99456.16;;;5.15;64.49
78584;BME280;67880;46.082;18.234;2023-04-03T00:17:18;99475.03;;;5.12;64.34
78584;BME280;67880;46.082;18.234;2023-04-03T00:17:48;99470.56;;;5.13;63.96
78584;BME280;67880;46.082;18.234;2023-04-03T00:18:21;99482.88;;;5.14;64.29
78584;BME280;67880;46.082;18.234;2023-04-03T00:18:52;99461.88;;;5.11;64.54
78584;BME280;67880;46.082;18.234;2023-04-03T00:19:41;99477.22;;;5.07;64.69
78584;BME280;67880;46.082;18.234;2023-04-03T00:20:12;99462.84;;;5.10;64.13
78584;BME280;67880;46.082;18.234;2023-04-03T00:20:43;99473.88;;;5.05;64.51
78584;BME280;67880;46.082;18.234;2023-04-03T00:21:13;99470.38;;;5.05;64.25
78584;BME280;67880;46.082;18.234;2023-04-03T00:21:45;99445.59;;;5.04;64.29
78584;BME280;67880;46.082;18.234;2023-04-03T00:22:16;99467.72;;;5.05;64.33
78584;BME280;67880;46.082;18.234;2023-04-03T00:22:46;99476.38;;;5.07;64.96
78584;BME280;67880;46.082;18.234;2023-04-03T00:23:17;99476.66;;;5.04;65.19
78584;BME280;67880;46.082;18.234;2023-04-03T00:23:48;99441.81;;;5.07;64.98
78584;BME280;67880;46.082;18.234;2023-04-03T00:24:19;99451.59;;;5.06;64.87
78584;BME280;67880;46.082;18.234;2023-04-03T00:24:49;99477.50;;;5.04;64.69
78584;BME280;67880;46.082;18.234;2023-04-03T00:25:20;99466.59;;;5.07;64.71
78584;BME280;67880;46.082;18.234;2023-04-03T00:25:53;99469.25;;;5.07;64.36
78584;BME280;67880;46.082;18.234;2023-04-03T00:26:24;99476.38;;;5.07;64.75
78584;BME280;67880;46.082;18.234;2023-04-03T00:26:55;99474.72;;;5.06;64.46
78584;BME280;67880;46.082;18.234;2023-04-03T00:27:25;99467.72;;;5.05;65.15
78584;BME280;67880;46.082;18.234;2023-04-03T00:27:56;99455.25;;;5.05;65.08
78584;BME280;67880;46.082;18.234;2023-04-03T00:28:27;99478.22;;;5.06;64.98
78584;BME280;67880;46.082;18.234;2023-04-03T00:28:57;99471.81;;;5.09;64.78
78584;BME280;67880;46.082;18.234;2023-04-03T00:29:28;99470.38;;;5.05;64.51
78584;BME280;67880;46.082;18.234;2023-04-03T00:29:59;99486.56;;;5.02;64.59
78584;BME280;67880;46.082;18.234;2023-04-03T00:30:30;99476.38;;;5.07;64.57
78584;BME280;67880;46.082;18.234;2023-04-03T00:31:01;99480.03;;;5.06;64.65
78584;BME280;67880;46.082;18.234;2023-04-03T00:31:31;99486.19;;;5.06;64.84
78584;BME280;67880;46.082;18.234;2023-04-03T00:32:02;99477.38;;;5.06;64.78
78584;BME280;67880;46.082;18.234;2023-04-03T00:32:32;99475.09;;;5.01;65.32
78584;BME280;67880;46.082;18.234;2023-04-03T00:33:03;99481.72;;;5.07;64.95
78584;BME280;67880;46.082;18.234;2023-04-03T00:33:34;99477.38;;;5.06;64.77
78584;BME280;67880;46.082;18.234;2023-04-03T00:34:05;99473.72;;;5.07;64.56
78584;BME280;67880;46.082;18.234;2023-04-03T00:34:35;99474.47;;;5.09;64.54
78584;BME280;67880;46.082;18.234;2023-04-03T00:35:06;99474.72;;;5.06;64.85
78584;BME280;67880;46.082;18.234;2023-04-03T00:35:37;99483.81;;;5.03;64.58
78584;BME280;67880;46.082;18.234;2023-04-03T00:36:09;99482.69;;;5.06;65.26
78584;BME280;67880;46.082;18.234;2023-04-03T00:36:40;99480.63;;;5.09;65.18
78584;BME280;67880;46.082;18.234;2023-04-03T00:37:11;99490.44;;;5.09;65.01
78584;BME280;67880;46.082;18.234;2023-04-03T00:37:42;99470.00;;;5.09;64.89
78584;BME280;67880;46.082;18.234;2023-04-03T00:38:14;99495.28;;;5.04;65.11
78584;BME280;67880;46.082;18.234;2023-04-03T00:38:44;99474.00;;;5.04;64.87
78584;BME280;67880;46.082;18.234;2023-04-03T00:39:15;99496.84;;;5.06;65.42
78584;BME280;67880;46.082;18.234;2023-04-03T00:39:46;99494.88;;;5.08;64.76
78584;BME280;67880;46.082;18.234;2023-04-03T00:40:17;99498.53;;;5.07;64.86
78584;BME280;67880;46.082;18.234;2023-04-03T00:40:49;99474.47;;;5.09;64.99
78584;BME280;67880;46.082;18.234;2023-04-03T00:41:38;99483.88;;;5.13;64.91
78584;BME280;67880;46.082;18.234;2023-04-03T00:42:09;99494.66;;;5.11;64.64
78584;BME280;67880;46.082;18.234;2023-04-03T00:42:41;99493.94;;;5.09;64.81
78584;BME280;67880;46.082;18.234;2023-04-03T00:43:19;99490.44;;;5.09;64.77
78584;BME280;67880;46.082;18.234;2023-04-03T00:43:50;99489.47;;;5.10;65.10
78584;BME280;67880;46.082;18.234;2023-04-03T00:45:21;99491.72;;;5.14;64.90
78584;BME280;67880;46.082;18.234;2023-04-03T00:45:33;99471.06;;;5.07;65.28
78584;BME280;67880;46.082;18.234;2023-04-03T00:46:04;99496.28;;;5.03;64.88
78584;BME280;67880;46.082;18.234;2023-04-03T00:46:35;99489.00;;;5.05;65.56
78584;BME280;67880;46.082;18.234;2023-04-03T00:47:08;99485.97;;;5.09;65.17
78584;BME280;67880;46.082;18.234;2023-04-03T00:47:40;99480.88;;;5.06;64.67
78584;BME280;67880;46.082;18.234;2023-04-03T00:48:19;99496.97;;;5.05;64.49
78584;BME280;67880;46.082;18.234;2023-04-03T00:48:50;99509.16;;;5.07;65.02
78584;BME280;67880;46.082;18.234;2023-04-03T00:49:21;99481.84;;;5.05;65.28
78584;BME280;67880;46.082;18.234;2023-04-03T00:49:53;99490.44;;;5.09;64.81
78584;BME280;67880;46.082;18.234;2023-04-03T00:50:24;99486.91;;;5.08;64.70
78584;BME280;67880;46.082;18.234;2023-04-03T00:50:55;99498.78;;;5.04;64.91
78584;BME280;67880;46.082;18.234;2023-04-03T00:51:27;99517.16;;;5.07;64.80
78584;BME280;67880;46.082;18.234;2023-04-03T00:51:58;99496.00;;;5.06;64.89
78584;BME280;67880;46.082;18.234;2023-04-03T00:52:30;99489.69;;;5.07;64.51
78584;BME280;67880;46.082;18.234;2023-04-03T00:53:01;99513.50;;;5.08;65.12
78584;BME280;67880;46.082;18.234;2023-04-03T00:53:38;99489.47;;;5.10;64.60
78584;BME280;67880;46.082;18.234;2023-04-03T00:54:11;99504.44;;;5.11;64.57
78584;BME280;67880;46.082;18.234;2023-04-03T00:54:44;99496.47;;;5.11;64.25
78584;BME280;67880;46.082;18.234;2023-04-03T00:55:16;99510.13;;;5.06;64.85
78584;BME280;67880;46.082;18.234;2023-04-03T00:55:48;99506.78;;;5.04;64.59
78584;BME280;67880;46.082;18.234;2023-04-03T00:56:21;99502.88;;;5.08;64.72
78584;BME280;67880;46.082;18.234;2023-04-03T00:56:57;99502.75;;;5.10;64.97
78584;BME280;67880;46.082;18.234;2023-04-03T00:57:30;99505.41;;;5.10;64.58
78584;BME280;67880;46.082;18.234;2023-04-03T00:58:01;99513.50;;;5.08;64.50
78584;BME280;67880;46.082;18.234;2023-04-03T00:58:42;99490.16;;;5.12;64.66
78584;BME280;67880;46.082;18.234;2023-04-03T00:59:21;99506.25;;;5.10;64.72
78584;BME280;67880;46.082;18.234;2023-04-03T01:00:00;99500.81;;;5.12;64.51
78584;BME280;67880;46.082;18.234;2023-04-03T01:00:34;99505.28;;;5.11;65.05
78584;BME280;67880;46.082;18.234;2023-04-03T01:01:08;99506.72;;;5.15;64.54
78584;BME280;67880;46.082;18.234;2023-04-03T01:01:41;99511.44;;;5.12;65.05
78584;BME280;67880;46.082;18.234;2023-04-03T01:02:12;99503.94;;;5.17;65.13
78584;BME280;67880;46.082;18.234;2023-04-03T01:02:43;99512.75;;;5.18;64.96
78584;BME280;67880;46.082;18.234;2023-04-03T01:03:13;99506.59;;;5.17;64.58
78584;BME280;67880;46.082;18.234;2023-04-03T01:03:44;99512.75;;;5.18;64.49
78584;BME280;67880;46.082;18.234;2023-04-03T01:04:36;99514.31;;;5.20;65.07
78584;BME280;67880;46.082;18.234;2023-04-03T01:05:07;99506.31;;;5.20;64.93
78584;BME280;67880;46.082;18.234;2023-04-03T01:05:38;99516.00;;;5.21;64.85
78584;BME280;67880;46.082;18.234;2023-04-03T01:06:10;99505.63;;;5.18;64.49
78584;BME280;67880;46.082;18.234;2023-04-03T01:06:41;99513.13;;;5.13;64.65
78584;BME280;67880;46.082;18.234;2023-04-03T01:07:21;99525.09;;;5.19;64.85
78584;BME280;67880;46.082;18.234;2023-04-03T01:07:53;99512.63;;;5.19;64.49
78584;BME280;67880;46.082;18.234;2023-04-03T01:08:23;99518.28;;;5.26;64.70
78584;BME280;67880;46.082;18.234;2023-04-03T01:08:55;99527.50;;;5.22;64.77
78584;BME280;67880;46.082;18.234;2023-04-03T01:09:26;99521.06;;;5.24;64.79
78584;BME280;67880;46.082;18.234;2023-04-03T01:10:00;99515.88;;;5.23;64.16
78584;BME280;67880;46.082;18.234;2023-04-03T01:10:32;99508.59;;;5.25;64.35
78584;BME280;67880;46.082;18.234;2023-04-03T01:11:02;99520.38;;;5.22;64.54
78584;BME280;67880;46.082;18.234;2023-04-03T01:11:33;99522.88;;;5.24;64.81
78584;BME280;67880;46.082;18.234;2023-04-03T01:12:25;99508.75;;;5.23;64.73
78584;BME280;67880;46.082;18.234;2023-04-03T01:12:56;99512.09;;;5.25;64.72
78584;BME280;67880;46.082;18.234;2023-04-03T01:13:31;99512.47;;;5.21;64.78
78584;BME280;67880;46.082;18.234;2023-04-03T01:14:02;99516.84;;;5.22;64.79
78584;BME280;67880;46.082;18.234;2023-04-03T01:14:33;99505.47;;;5.20;64.53
78584;BME280;67880;46.082;18.234;2023-04-03T01:15:07;99513.72;;;5.16;64.68
78584;BME280;67880;46.082;18.234;2023-04-03T01:15:38;99522.56;;;5.17;64.69
78584;BME280;67880;46.082;18.234;2023-04-03T01:16:09;99514.72;;;5.15;64.55
78584;BME280;67880;46.082;18.234;2023-04-03T01:16:40;99507.44;;;5.18;65.21
78584;BME280;67880;46.082;18.234;2023-04-03T01:18:04;99508.59;;;5.25;64.64
78584;BME280;67880;46.082;18.234;2023-04-03T01:18:39;99514.91;;;5.24;64.53
78584;BME280;67880;46.082;18.234;2023-04-03T01:19:15;99520.22;;;5.24;64.76
78584;BME280;67880;46.082;18.234;2023-04-03T01:20:44;99515.59;;;5.26;64.97
78584;BME280;67880;46.082;18.234;2023-04-03T01:22:19;99527.50;;;5.22;64.87
78584;BME280;67880;46.082;18.234;2023-04-03T01:23:54;99522.75;;;5.25;64.97
78584;BME280;67880;46.082;18.234;2023-04-03T01:24:37;99505.09;;;5.24;64.53
78584;BME280;67880;46.082;18.234;2023-04-03T01:25:09;99515.59;;;5.26;65.03
78584;BME280;67880;46.082;18.234;2023-04-03T01:25:43;99514.91;;;5.24;64.73
78584;BME280;67880;46.082;18.234;2023-04-03T01:26:14;99521.78;;;5.26;65.34
78584;BME280;67880;46.082;18.234;2023-04-03T01:26:45;99518.53;;;5.23;65.12
78584;BME280;67880;46.082;18.234;2023-04-03T01:27:16;99521.91;;;5.25;65.28
78584;BME280;67880;46.082;18.234;2023-04-03T01:27:47;99524.44;;;5.26;65.46
78584;BME280;67880;46.082;18.234;2023-04-03T01:28:32;99520.22;;;5.24;65.41
78584;BME280;67880;46.082;18.234;2023-04-03T01:29:04;99518.13;;;5.27;65.30
78584;BME280;67880;46.082;18.234;2023-04-03T01:29:35;99510.28;;;5.26;65.32
78584;BME280;67880;46.082;18.234;2023-04-03T01:30:06;99515.94;;;5.32;64.72
78584;BME280;67880;46.082;18.234;2023-04-03T01:30:45;99520.22;;;5.24;64.82
78584;BME280;67880;46.082;18.234;2023-04-03T01:31:57;99515.16;;;5.21;65.82
78584;BME280;67880;46.082;18.234;2023-04-03T01:32:28;99507.63;;;5.26;66.04
78584;BME280;67880;46.082;18.234;2023-04-03T01:32:58;99512.63;;;5.19;65.79
78584;BME280;67880;46.082;18.234;2023-04-03T01:33:29;99515.88;;;5.23;66.02
78584;BME280;67880;46.082;18.234;2023-04-03T01:34:00;99521.19;;;5.23;65.65
78584;BME280;67880;46.082;18.234;2023-04-03T01:34:31;99523.59;;;5.26;66.15
78584;BME280;67880;46.082;18.234;2023-04-03T01:35:02;99520.09;;;5.25;65.75
78584;BME280;67880;46.082;18.234;2023-04-03T01:35:33;99513.09;;;5.24;65.72
78584;BME280;67880;46.082;18.234;2023-04-03T01:36:04;99523.97;;;5.21;66.38
78584;BME280;67880;46.082;18.234;2023-04-03T01:36:35;99523.59;;;5.26;66.10
78584;BME280;67880;46.082;18.234;2023-04-03T01:37:06;99522.63;;;5.27;66.32
78584;BME280;67880;46.082;18.234;2023-04-03T01:37:36;99515.28;;;5.19;66.41
78584;BME280;67880;46.082;18.234;2023-04-03T01:38:07;99527.38;;;5.23;66.23
78584;BME280;67880;46.082;18.234;2023-04-03T01:38:38;99513.31;;;5.21;66.40
78584;BME280;67880;46.082;18.234;2023-04-03T01:39:08;99527.69;;;5.30;65.94
78584;BME280;67880;46.082;18.234;2023-04-03T01:39:39;99534.00;;;5.29;66.01
78584;BME280;67880;46.082;18.234;2023-04-03T01:40:10;99543.53;;;5.31;66.63
78584;BME280;67880;46.082;18.234;2023-04-03T01:40:40;99530.22;;;5.31;66.27
78584;BME280;67880;46.082;18.234;2023-04-03T01:41:11;99529.75;;;5.26;66.68
78584;BME280;67880;46.082;18.234;2023-04-03T01:41:42;99526.53;;;5.23;66.42
78584;BME280;67880;46.082;18.234;2023-04-03T01:42:13;99539.31;;;5.29;66.46
78584;BME280;67880;46.082;18.234;2023-04-03T01:42:43;99535.69;;;5.30;66.56
78584;BME280;67880;46.082;18.234;2023-04-03T01:43:14;99526.00;;;5.29;67.00
78584;BME280;67880;46.082;18.234;2023-04-03T01:43:45;99531.19;;;5.30;66.97
78584;BME280;67880;46.082;18.234;2023-04-03T01:44:15;99530.22;;;5.31;67.11
78584;BME280;67880;46.082;18.234;2023-04-03T01:44:46;99535.41;;;5.33;66.40
78584;BME280;67880;46.082;18.234;2023-04-03T01:45:17;99541.06;;;5.39;66.43
78584;BME280;67880;46.082;18.234;2023-04-03T01:45:47;99541.06;;;5.39;66.32
78584;BME280;67880;46.082;18.234;2023-04-03T01:46:20;99535.50;;;5.42;66.58
78584;BME280;67880;46.082;18.234;2023-04-03T01:46:51;99541.19;;;5.38;66.34
78584;BME280;67880;46.082;18.234;2023-04-03T01:47:22;99540.50;;;5.36;67.03
78584;BME280;67880;46.082;18.234;2023-04-03T01:47:53;99543.84;;;5.38;66.48
78584;BME280;67880;46.082;18.234;2023-04-03T01:48:24;99552.16;;;5.44;66.84
78584;BME280;67880;46.082;18.234;2023-04-03T01:48:55;99544.69;;;5.38;67.07
78584;BME280;67880;46.082;18.234;2023-04-03T01:49:25;99552.31;;;5.43;66.41
78584;BME280;67880;46.082;18.234;2023-04-03T01:49:56;99554.50;;;5.38;66.97
78584;BME280;67880;46.082;18.234;2023-04-03T01:50:27;99548.72;;;5.33;66.40
78584;BME280;67880;46.082;18.234;2023-04-03T01:50:57;99547.75;;;5.34;66.98
78584;BME280;67880;46.082;18.234;2023-04-03T01:51:28;99545.91;;;5.34;66.58
78584;BME280;67880;46.082;18.234;2023-04-03T01:51:58;99553.19;;;5.32;66.91
78584;BME280;67880;46.082;18.234;2023-04-03T01:52:29;99557.44;;;5.35;66.69
78584;BME280;67880;46.082;18.234;2023-04-03T01:53:00;99551.59;;;5.41;66.82
78584;BME280;67880;46.082;18.234;2023-04-03T01:53:31;99540.22;;;5.39;67.05
78584;BME280;67880;46.082;18.234;2023-04-03T01:54:02;99547.34;;;5.38;66.82
78584;BME280;67880;46.082;18.234;2023-04-03T01:54:32;99555.34;;;5.38;67.32
78584;BME280;67880;46.082;18.234;2023-04-03T01:55:04;99573.00;;;5.39;67.10
78584;BME280;67880;46.082;18.234;2023-04-03T01:55:35;99550.03;;;5.38;66.98
78584;BME280;67880;46.082;18.234;2023-04-03T01:56:05;99541.06;;;5.39;66.50
78584;BME280;67880;46.082;18.234;2023-04-03T01:56:36;99547.34;;;5.38;66.54
78584;BME280;67880;46.082;18.234;2023-04-03T01:57:07;99555.34;;;5.38;66.88
78584;BME280;67880;46.082;18.234;2023-04-03T01:57:38;99554.78;;;5.35;67.39
78584;BME280;67880;46.082;18.234;2023-04-03T01:58:08;99564.56;;;5.34;66.86
78584;BME280;67880;46.082;18.234;2023-04-03T01:58:39;99554.88;;;5.33;66.79
78584;BME280;67880;46.082;18.234;2023-04-03T01:59:10;99547.88;;;5.32;67.21
78584;BME280;67880;46.082;18.234;2023-04-03T01:59:41;99554.31;;;5.30;67.41
78584;BME280;67880;46.082;18.234;2023-04-03T02:00:12;99558.06;;;5.27;67.24
78584;BME280;67880;46.082;18.234;2023-04-03T02:00:42;99556.13;;;5.29;67.45
78584;BME280;67880;46.082;18.234;2023-04-03T02:01:13;99556.13;;;5.29;67.21
78584;BME280;67880;46.082;18.234;2023-04-03T02:01:44;99559.63;;;5.30;67.47
78584;BME280;67880;46.082;18.234;2023-04-03T02:02:15;99561.88;;;5.34;67.39
78584;BME280;67880;46.082;18.234;2023-04-03T02:02:46;99556.47;;;5.36;66.99
78584;BME280;67880;46.082;18.234;2023-04-03T02:03:16;99553.56;;;5.28;67.66
78584;BME280;67880;46.082;18.234;2023-04-03T02:03:47;99567.75;;;5.28;67.72
78584;BME280;67880;46.082;18.234;2023-04-03T02:04:18;99562.28;;;5.30;67.66
78584;BME280;67880;46.082;18.234;2023-04-03T02:04:48;99571.00;;;5.32;67.27
78584;BME280;67880;46.082;18.234;2023-04-03T02:05:19;99565.66;;;5.32;67.68
78584;BME280;67880;46.082;18.234;2023-04-03T02:05:50;99572.81;;;5.31;67.48
78584;BME280;67880;46.082;18.234;2023-04-03T02:07:31;99563.88;;;5.21;68.09
78584;BME280;67880;46.082;18.234;2023-04-03T02:08:02;99572.59;;;5.23;68.12
78584;BME280;67880;46.082;18.234;2023-04-03T02:08:33;99558.31;;;5.24;68.39
78584;BME280;67880;46.082;18.234;2023-04-03T02:09:04;99564.03;;;5.20;67.92
78584;BME280;67880;46.082;18.234;2023-04-03T02:09:35;99564.75;;;5.22;68.51
78584;BME280;67880;46.082;18.234;2023-04-03T02:10:06;99561.13;;;5.23;68.18
78584;BME280;67880;46.082;18.234;2023-04-03T02:10:37;99572.59;;;5.23;68.48
78584;BME280;67880;46.082;18.234;2023-04-03T02:11:08;99565.59;;;5.22;68.27
78584;BME280;67880;46.082;18.234;2023-04-03T02:11:38;99564.34;;;5.26;67.84
78584;BME280;67880;46.082;18.234;2023-04-03T02:12:09;99562.19;;;5.20;68.38
78584;BME280;67880;46.082;18.234;2023-04-03T02:12:40;99550.47;;;5.23;68.59
78584;BME280;67880;46.082;18.234;2023-04-03T02:13:11;99556.03;;;5.20;68.31
78584;BME280;67880;46.082;18.234;2023-04-03T02:13:41;99569.22;;;5.21;68.44
78584;BME280;67880;46.082;18.234;2023-04-03T02:14:12;99562.81;;;5.24;68.56
78584;BME280;67880;46.082;18.234;2023-04-03T02:14:43;99557.34;;;5.25;68.03
78584;BME280;67880;46.082;18.234;2023-04-03T02:15:13;99565.94;;;5.29;68.31
78584;BME280;67880;46.082;18.234;2023-04-03T02:15:45;99563.38;;;5.27;67.50
78584;BME280;67880;46.082;18.234;2023-04-03T02:16:16;99556.22;;;5.28;68.42
78584;BME280;67880;46.082;18.234;2023-04-03T02:16:46;99557.94;;;5.29;67.59
78584;BME280;67880;46.082;18.234;2023-04-03T02:17:17;99562.44;;;5.28;68.16
78584;BME280;67880;46.082;18.234;2023-04-03T02:17:48;99557.09;;;5.28;67.69
78584;BME280;67880;46.082;18.234;2023-04-03T02:18:19;99560.72;;;5.27;68.19
78584;BME280;67880;46.082;18.234;2023-04-03T02:18:49;99559.03;;;5.26;68.35
78584;BME280;67880;46.082;18.234;2023-04-03T02:19:20;99560.63;;;5.29;67.80
78584;BME280;67880;46.082;18.234;2023-04-03T02:19:51;99558.91;;;5.28;67.77
78584;BME280;67880;46.082;18.234;2023-04-03T02:20:22;99561.69;;;5.26;67.90
78584;BME280;67880;46.082;18.234;2023-04-03T02:20:53;99559.31;;;5.23;67.67
78584;BME280;67880;46.082;18.234;2023-04-03T02:21:23;99557.72;;;5.21;67.99
78584;BME280;67880;46.082;18.234;2023-04-03T02:22:12;99562.81;;;5.24;67.94
78584;BME280;67880;46.082;18.234;2023-04-03T02:22:43;99561.56;;;5.28;67.80
78584;BME280;67880;46.082;18.234;2023-04-03T02:23:14;99553.34;;;5.31;67.48
78584;BME280;67880;46.082;18.234;2023-04-03T02:23:45;99558.78;;;5.29;67.56
78584;BME280;67880;46.082;18.234;2023-04-03T02:24:15;99546.00;;;5.23;67.73
78584;BME280;67880;46.082;18.234;2023-04-03T02:24:46;99554.97;;;5.22;67.93
78584;BME280;67880;46.082;18.234;2023-04-03T02:25:17;99561.38;;;5.20;67.79
78584;BME280;67880;46.082;18.234;2023-04-03T02:26:12;99560.28;;;5.22;68.37
78584;BME280;67880;46.082;18.234;2023-04-03T02:26:43;99558.56;;;5.21;67.86
78584;BME280;67880;46.082;18.234;2023-04-03T02:27:14;99557.63;;;5.22;67.74
78584;BME280;67880;46.082;18.234;2023-04-03T02:27:45;99550.59;;;5.21;67.71
78584;BME280;67880;46.082;18.234;2023-04-03T02:28:15;99561.00;;;5.24;68.02
78584;BME280;67880;46.082;18.234;2023-04-03T02:28:46;99540.69;;;5.23;67.66
78584;BME280;67880;46.082;18.234;2023-04-03T02:29:17;99550.59;;;5.21;67.79
78584;BME280;67880;46.082;18.234;2023-04-03T02:29:47;99554.50;;;5.17;67.45
78584;BME280;67880;46.082;18.234;2023-04-03T02:30:18;99561.22;;;5.21;67.43
78584;BME280;67880;46.082;18.234;2023-04-03T02:30:48;99551.56;;;5.20;67.51
78584;BME280;67880;46.082;18.234;2023-04-03T02:31:19;99561.13;;;5.23;68.00
78584;BME280;67880;46.082;18.234;2023-04-03T02:31:51;99554.81;;;5.24;67.86
78584;BME280;67880;46.082;18.234;2023-04-03T02:32:21;99565.72;;;5.21;67.81
78584;BME280;67880;46.082;18.234;2023-04-03T02:32:52;99560.53;;;5.19;68.13
78584;BME280;67880;46.082;18.234;2023-04-03T02:33:23;99557.72;;;5.21;67.74
78584;BME280;67880;46.082;18.234;2023-04-03T02:33:54;99562.19;;;5.20;67.58
78584;BME280;67880;46.082;18.234;2023-04-03T02:34:24;99564.75;;;5.22;67.85
78584;BME280;67880;46.082;18.234;2023-04-03T02:34:55;99559.53;;;5.20;67.60
78584;BME280;67880;46.082;18.234;2023-04-03T02:35:26;99559.81;;;5.17;67.81
78584;BME280;67880;46.082;18.234;2023-04-03T02:35:57;99559.03;;;5.26;67.40
78584;BME280;67880;46.082;18.234;2023-04-03T02:36:28;99561.81;;;5.25;67.64
78584;BME280;67880;46.082;18.234;2023-04-03T02:36:58;99542.34;;;5.24;67.48
78584;BME280;67880;46.082;18.234;2023-04-03T02:37:29;99547.81;;;5.23;66.93
78584;BME280;67880;46.082;18.234;2023-04-03T02:38:00;99560.16;;;5.24;67.60
78584;BME280;67880;46.082;18.234;2023-04-03T02:38:31;99564.50;;;5.25;67.33
78584;BME280;67880;46.082;18.234;2023-04-03T02:39:02;99564.50;;;5.25;67.52
78584;BME280;67880;46.082;18.234;2023-04-03T02:39:32;99558.56;;;5.21;67.34
78584;BME280;67880;46.082;18.234;2023-04-03T02:40:04;99559.31;;;5.23;67.69
78584;BME280;67880;46.082;18.234;2023-04-03T02:40:36;99575.13;;;5.25;67.51
78584;BME280;67880;46.082;18.234;2023-04-03T02:41:09;99566.31;;;5.24;67.45
78584;BME280;67880;46.082;18.234;2023-04-03T02:41:40;99557.47;;;5.24;67.43
78584;BME280;67880;46.082;18.234;2023-04-03T02:42:11;99567.84;;;5.27;67.55
78584;BME280;67880;46.082;18.234;2023-04-03T02:42:41;99556.50;;;5.25;67.68
78584;BME280;67880;46.082;18.234;2023-04-03T02:43:12;99570.41;;;5.28;67.56
78584;BME280;67880;46.082;18.234;2023-04-03T02:43:43;99564.13;;;5.29;67.40
78584;BME280;67880;46.082;18.234;2023-04-03T02:44:13;99564.13;;;5.29;67.56
78584;BME280;67880;46.082;18.234;2023-04-03T02:45:56;99562.16;;;5.31;67.71
78584;BME280;67880;46.082;18.234;2023-04-03T02:46:27;99556.00;;;5.31;67.31
78584;BME280;67880;46.082;18.234;2023-04-03T02:46:57;99562.44;;;5.28;67.66
78584;BME280;67880;46.082;18.234;2023-04-03T02:47:28;99574.16;;;5.26;67.55
78584;BME280;67880;46.082;18.234;2023-04-03T02:48:17;99581.06;;;5.28;67.44
78584;BME280;67880;46.082;18.234;2023-04-03T02:48:48;99559.53;;;5.20;67.65
78584;BME280;67880;46.082;18.234;2023-04-03T02:49:19;99568.69;;;5.27;67.64
78584;BME280;67880;46.082;18.234;2023-04-03T02:49:50;99569.69;;;5.26;67.91
78584;BME280;67880;46.082;18.234;2023-04-03T02:50:23;99562.28;;;5.30;67.50
78584;BME280;67880;46.082;18.234;2023-04-03T02:50:53;99576.06;;;5.35;67.03
78584;BME280;67880;46.082;18.234;2023-04-03T02:51:24;99565.44;;;5.35;67.62
78584;BME280;67880;46.082;18.234;2023-04-03T02:51:55;99563.38;;;5.27;67.65
78584;BME280;67880;46.082;18.234;2023-04-03T02:52:25;99560.72;;;5.27;67.13
78584;BME280;67880;46.082;18.234;2023-04-03T02:52:56;99571.97;;;5.31;66.98
78584;BME280;67880;46.082;18.234;2023-04-03T02:53:27;99559.78;;;5.28;67.11
78584;BME280;67880;46.082;18.234;2023-04-03T02:53:57;99560.47;;;5.30;67.55
78584;BME280;67880;46.082;18.234;2023-04-03T02:54:28;99570.66;;;5.25;67.36
78584;BME280;67880;46.082;18.234;2023-04-03T02:55:00;99570.41;;;5.28;67.38
78584;BME280;67880;46.082;18.234;2023-04-03T02:55:31;99567.34;;;5.33;67.04
78584;BME280;67880;46.082;18.234;2023-04-03T02:56:02;99563.28;;;5.29;67.01